Airfield :
LOGIN :

Register | Disclaimer

   EN    FR    IT 

 










Legend :    VFR   Marginal VFR   IFR   Intensive IFR   Very Intensive IFR
Visi :
Ceiling :
>= 8 km
>= 3000ft
5 to 8 km
1000 to 3000 ft
1500m to 5 km
500 to 1000 ft
800 to 1500m
200 to 500 ft
< 800m
< 200 ft
Symbols :   Thunderstorms  Fog  Heavy snow  Heavy precipitations  Wind > 20 kt
SIGMETs :     Misc.  Thunderstorms  Icing  Turbulence  Mountain Waves  Volcanic Ashes







- Airport Elevation : 209 ft
- IATA code : CLY
- Download approach charts


LFKC - Calvi

CURRENT METAR :
  • 262300Z AUTO 07005KT 040V100 9999 SCT028 SCT034 BKN100 16/13 Q1008 NOSIG

EXPIRED METARs :
  • 262230Z AUTO 06005KT 030V100 9999 BKN026 16/13 Q1008 NOSIG
  • 262200Z AUTO VRB03KT 9999 BKN021 BKN027 BKN037 16/13 Q1008 NOSIG
  • 262130Z AUTO 10005KT 040V160 9999 FEW019 BKN025 BKN032 17/14 Q1008 NOSIG
  • 262100Z AUTO 06002KT 9000 BKN023 OVC030 17/14 Q1009 NOSIG
  • 262030Z AUTO VRB01KT 9000 OVC024 17/14 Q1008 NOSIG

TAF TAF LFKC
Valid from the 26 at 18:00 until the 27 at 18:00 UTC


261700Z 2618/2718 18007KT 9999 FEW023 SCT050 BKN110
TEMPO 2709/2718 26015G25KT TX21/2712Z TN12/2703Z
ATIS : +33 4 95 65 82 49
No reported NOTAMs for that airfield.
1 SIGMET reported for the Marseille FIR (LFMM) :
 
Embedded thunderstorms
LFMM SIGMET 1 VALID 262300/270300 LFPW
LFMM MARSEILLE FIR/UIR EMBD TS FCST S OF LINE N4030 E00800 - N3900 E00515 TOP FL350 STNR NC=



MET'MAP, your aeronautical weather chart ! - Copyright ORBIFLY December 2007 - Disclaimer

ORBIFLY MET'MAP TEAM :

Programming & Development : Alexandra Zaïnal
Concept & Development : Baudouin d'Aumeries
Co-Development & Prog : Marc-Olivier Méhu
Technical & hardware support : Manuel Goepfert

Contact : metmap@orbifly.com




SOURCES & CREDITS :

   NOAA